Time;durP1;ratioP1;P1;durP2;ratioP2;P2;SDS_P1;SDS_P2;PMS_P1;PMS_P2;Temp;Humidity;BMP_temperature;BMP_pressure;BME280_temperature;BME280_humidity;BME280_pressure;Samples;Min_cycle;Max_cycle;Signal;HPM_P1;HPM_P2
2023/04/28 00:01:00;;;;;;;8.10;5.45;;;12.10;1.00;;;;;;7384932;19;20018;-73
2023/04/28 00:03:30;;;;;;;8.68;4.50;;;12.10;1.00;;;;;;7366722;19;20493;-72
2023/04/28 00:06:04;;;;;;;7.07;4.68;;;12.10;1.00;;;;;;7366262;19;20033;-73
2023/04/28 00:08:35;;;;;;;8.20;5.20;;;12.10;1.00;;;;;;7366586;19;20119;-74
2023/04/28 00:11:05;;;;;;;9.45;5.13;;;12.10;1.00;;;;;;7364454;19;20019;-73
2023/04/28 00:13:35;;;;;;;7.88;5.28;;;12.10;1.00;;;;;;7365432;19;20010;-74
2023/04/28 00:16:05;;;;;;;9.80;5.38;;;12.10;1.00;;;;;;7387898;19;20050;-73
2023/04/28 00:18:35;;;;;;;7.40;5.00;;;12.10;1.00;;;;;;7364954;19;20098;-73
2023/04/28 00:21:07;;;;;;;7.55;4.75;;;12.10;1.00;;;;;;7363672;19;20015;-74
2023/04/28 00:23:37;;;;;;;7.07;4.80;;;12.00;1.00;;;;;;7364630;19;20419;-73
2023/04/28 00:26:07;;;;;;;10.20;4.45;;;12.10;1.00;;;;;;7366424;19;20017;-71
2023/04/28 00:28:37;;;;;;;5.80;4.18;;;12.00;1.00;;;;;;7365413;19;20014;-72
2023/04/28 00:31:12;;;;;;;7.68;4.60;;;12.00;1.00;;;;;;7383939;19;20024;-72
2023/04/28 00:33:42;;;;;;;8.50;4.20;;;12.00;1.00;;;;;;7365645;19;20021;-73
2023/04/28 00:36:15;;;;;;;8.38;4.05;;;12.00;1.00;;;;;;7365836;19;20062;-73
2023/04/28 00:38:45;;;;;;;8.18;4.18;;;12.00;1.00;;;;;;7365992;19;20038;-74
2023/04/28 00:41:15;;;;;;;8.55;4.18;;;11.90;1.00;;;;;;7362780;19;20006;-73
2023/04/28 00:43:48;;;;;;;5.70;4.25;;;11.80;1.00;;;;;;7365625;19;20022;-73
2023/04/28 00:46:23;;;;;;;6.20;3.90;;;11.80;1.00;;;;;;7366102;19;20659;-74
2023/04/28 00:48:53;;;;;;;7.47;4.25;;;11.70;1.00;;;;;;7386588;19;20111;-74
2023/04/28 00:51:26;;;;;;;6.75;4.53;;;11.70;1.00;;;;;;7362090;19;20014;-74
2023/04/28 00:53:56;;;;;;;5.80;4.25;;;11.70;1.00;;;;;;7369651;19;20010;-72
2023/04/28 00:56:27;;;;;;;6.68;4.45;;;11.70;1.00;;;;;;7373720;19;20468;-73
2023/04/28 00:58:57;;;;;;;6.32;4.38;;;11.70;1.00;;;;;;7372396;19;20018;-73
2023/04/28 01:01:27;;;;;;;7.22;4.35;;;11.60;1.00;;;;;;7371175;19;20038;-73
2023/04/28 01:03:57;;;;;;;6.63;4.70;;;11.70;1.00;;;;;;7393851;19;20043;-74
2023/04/28 01:06:31;;;;;;;7.03;4.22;;;11.80;1.00;;;;;;7371418;19;20006;-74
2023/04/28 01:09:01;;;;;;;7.40;4.88;;;11.70;1.00;;;;;;7370094;19;20077;-74
2023/04/28 01:11:30;;;;;;;5.97;4.18;;;11.80;1.00;;;;;;7367975;19;20011;-74
2023/04/28 01:14:00;;;;;;;7.15;4.43;;;11.70;1.00;;;;;;7393300;19;20018;-73
2023/04/28 01:16:31;;;;;;;7.53;4.47;;;11.70;1.00;;;;;;7393624;19;20010;-74
2023/04/28 01:19:02;;;;;;;5.20;3.97;;;11.80;1.00;;;;;;7355692;19;20011;-74
2023/04/28 01:21:35;;;;;;;7.88;4.28;;;11.90;1.00;;;;;;7389470;19;20020;-73
2023/04/28 01:24:09;;;;;;;7.47;4.45;;;12.00;1.00;;;;;;7369380;19;20015;-73
2023/04/28 01:26:38;;;;;;;9.65;4.43;;;11.90;1.00;;;;;;7371473;19;20443;-74
2023/04/28 01:29:08;;;;;;;8.60;4.70;;;12.00;1.00;;;;;;7369219;19;20097;-73
2023/04/28 01:31:38;;;;;;;6.50;4.40;;;12.00;1.00;;;;;;7370245;19;20014;-74
2023/04/28 01:34:08;;;;;;;5.25;4.07;;;12.00;1.00;;;;;;7370602;19;20688;-72
2023/04/28 01:36:38;;;;;;;6.00;4.32;;;12.10;1.00;;;;;;7392469;19;20114;-74
2023/04/28 01:39:11;;;;;;;6.65;4.38;;;12.10;1.00;;;;;;7369887;19;20029;-74
2023/04/28 01:41:41;;;;;;;6.95;4.20;;;12.10;1.00;;;;;;7370624;19;20015;-73
2023/04/28 01:44:11;;;;;;;8.63;4.47;;;12.10;1.00;;;;;;7369725;19;20011;-74
2023/04/28 01:46:42;;;;;;;7.50;4.00;;;12.10;1.00;;;;;;7369546;19;20458;-74
2023/04/28 01:49:11;;;;;;;9.23;4.60;;;12.00;1.00;;;;;;7367078;19;20018;-75
2023/04/28 01:51:41;;;;;;;8.15;4.55;;;11.80;1.00;;;;;;7391824;19;20023;-75
2023/04/28 01:54:14;;;;;;;7.63;5.00;;;11.60;1.00;;;;;;7369535;19;20015;-74
2023/04/28 01:56:45;;;;;;;7.70;5.03;;;11.60;1.00;;;;;;7370304;19;20462;-74
2023/04/28 01:59:15;;;;;;;6.82;5.28;;;11.40;1.00;;;;;;7368484;19;20018;-74
2023/04/28 02:01:45;;;;;;;6.20;4.97;;;11.50;1.00;;;;;;7369581;19;20378;-75
2023/04/28 02:04:15;;;;;;;8.57;5.00;;;11.50;1.00;;;;;;7369458;19;20451;-73
2023/04/28 02:06:45;;;;;;;9.05;5.15;;;11.50;1.00;;;;;;7393274;19;20041;-74
2023/04/28 02:09:18;;;;;;;6.38;4.72;;;11.60;1.00;;;;;;7369123;19;20030;-74
2023/04/28 02:11:48;;;;;;;9.77;4.93;;;11.50;1.00;;;;;;7368802;19;20494;-74
2023/04/28 02:14:18;;;;;;;6.47;4.43;;;11.50;1.00;;;;;;7369275;19;20022;-74
2023/04/28 02:16:47;;;;;;;5.00;4.47;;;11.60;1.00;;;;;;7371241;19;20019;-74
2023/04/28 02:19:17;;;;;;;6.55;4.13;;;11.60;1.00;;;;;;7368310;19;20010;-74
2023/04/28 02:21:47;;;;;;;6.93;4.30;;;11.70;1.00;;;;;;7391235;19;20011;-74
2023/04/28 02:24:20;;;;;;;4.97;3.67;;;11.80;1.00;;;;;;7369317;19;20467;-74
2023/04/28 02:26:49;;;;;;;5.70;3.33;;;11.80;1.00;;;;;;7370483;19;20020;-74
2023/04/28 02:29:19;;;;;;;5.28;3.85;;;11.80;1.00;;;;;;7365978;19;20014;-73
2023/04/28 02:31:49;;;;;;;4.70;3.83;;;11.90;1.00;;;;;;7368927;19;20025;-73
2023/04/28 02:34:20;;;;;;;4.60;3.47;;;11.90;1.00;;;;;;7366662;19;20025;-74
2023/04/28 02:36:50;;;;;;;6.18;3.53;;;11.90;1.00;;;;;;7392044;19;20074;-73
2023/04/28 02:39:25;;;;;;;5.43;3.60;;;12.00;1.00;;;;;;7366403;19;20011;-74
2023/04/28 02:41:56;;;;;;;5.28;3.58;;;12.00;1.00;;;;;;7367844;19;20450;-74
2023/04/28 02:44:26;;;;;;;7.00;4.00;;;12.10;1.00;;;;;;7367699;19;20038;-74
2023/04/28 02:46:56;;;;;;;6.18;4.40;;;12.10;1.00;;;;;;7369344;19;20022;-74
2023/04/28 02:49:26;;;;;;;6.30;4.65;;;11.90;1.00;;;;;;7367391;19;20010;-73
2023/04/28 02:51:56;;;;;;;10.27;4.30;;;11.80;1.00;;;;;;7390501;19;20114;-74
2023/04/28 02:54:28;;;;;;;8.30;4.15;;;11.80;1.00;;;;;;7366563;19;20009;-73
2023/04/28 02:57:00;;;;;;;6.28;4.05;;;11.80;1.00;;;;;;7368480;19;20046;-73
2023/04/28 02:59:30;;;;;;;6.65;4.10;;;11.70;1.00;;;;;;7365409;19;20424;-74
2023/04/28 03:02:00;;;;;;;8.20;4.18;;;11.60;1.00;;;;;;7368003;19;20019;-75
2023/04/28 03:04:30;;;;;;;5.28;3.67;;;11.50;1.00;;;;;;7368473;19;20434;-75
2023/04/28 03:07:00;;;;;;;7.68;4.68;;;11.60;1.00;;;;;;7390832;19;20507;-76
2023/04/28 03:09:32;;;;;;;7.50;4.72;;;11.70;1.00;;;;;;7366102;19;20344;-75
2023/04/28 03:12:02;;;;;;;6.90;4.68;;;11.60;1.00;;;;;;7366610;19;20085;-75
2023/04/28 03:14:32;;;;;;;8.38;4.78;;;11.60;1.00;;;;;;7365957;19;20028;-75
2023/04/28 03:17:02;;;;;;;7.43;4.60;;;11.60;1.00;;;;;;7365402;19;20336;-76
2023/04/28 03:19:32;;;;;;;6.05;4.75;;;11.50;1.00;;;;;;7366032;19;20073;-76
2023/04/28 03:22:02;;;;;;;7.88;4.53;;;11.40;1.00;;;;;;7390104;19;20042;-76
2023/04/28 03:24:34;;;;;;;7.43;4.90;;;11.40;1.00;;;;;;7365421;19;20553;-76
2023/04/28 03:27:05;;;;;;;7.63;4.93;;;11.50;1.00;;;;;;7367359;19;20073;-76
2023/04/28 03:29:35;;;;;;;7.38;5.70;;;11.50;1.00;;;;;;7364609;19;20007;-76
2023/04/28 03:32:05;;;;;;;5.63;4.80;;;11.60;1.00;;;;;;7368300;19;20018;-75
2023/04/28 03:34:35;;;;;;;6.80;4.75;;;11.60;1.00;;;;;;7365488;19;20085;-77
2023/04/28 03:37:05;;;;;;;8.02;5.35;;;11.40;1.00;;;;;;7368715;19;20018;-76
2023/04/28 03:39:38;;;;;;;7.18;5.05;;;11.30;1.10;;;;;;7386314;19;20018;-77
2023/04/28 03:42:07;;;;;;;9.15;5.70;;;11.30;3.10;;;;;;7367602;19;20063;-77
2023/04/28 03:44:37;;;;;;;10.02;5.70;;;11.20;3.40;;;;;;7366708;19;20006;-76
2023/04/28 03:47:08;;;;;;;6.85;5.13;;;11.20;6.30;;;;;;7367618;19;20410;-76
2023/04/28 03:49:38;;;;;;;8.10;5.70;;;11.20;9.00;;;;;;7364540;19;20022;-76
2023/04/28 03:52:07;;;;;;;7.90;5.68;;;11.20;13.10;;;;;;7367705;19;20039;-75
2023/04/28 03:54:40;;;;;;;7.90;5.38;;;11.30;15.20;;;;;;7386616;19;20030;-76
2023/04/28 03:57:10;;;;;;;7.22;5.28;;;11.30;12.70;;;;;;7366670;19;20014;-75
2023/04/28 03:59:40;;;;;;;7.70;5.20;;;11.40;9.90;;;;;;7364431;19;20015;-76
2023/04/28 04:02:10;;;;;;;10.23;5.30;;;11.40;8.90;;;;;;7366088;19;20014;-76
2023/04/28 04:04:39;;;;;;;8.48;5.00;;;11.40;6.60;;;;;;7366047;19;20423;-74
2023/04/28 04:07:10;;;;;;;9.60;5.28;;;11.40;1.30;;;;;;7368486;19;20014;-74
2023/04/28 04:09:42;;;;;;;8.10;5.13;;;11.60;1.40;;;;;;7385834;19;20462;-75
2023/04/28 04:12:12;;;;;;;8.30;4.65;;;11.60;1.70;;;;;;7366359;19;20014;-75
2023/04/28 04:14:42;;;;;;;7.57;4.70;;;11.50;1.30;;;;;;7363954;19;20014;-75
2023/04/28 04:17:12;;;;;;;6.43;4.70;;;11.50;1.30;;;;;;7366883;19;20013;-75
2023/04/28 04:19:42;;;;;;;8.38;5.22;;;11.40;1.20;;;;;;7364370;19;20474;-76
2023/04/28 04:22:12;;;;;;;6.93;4.88;;;11.50;1.00;;;;;;7365829;19;20514;-75
2023/04/28 04:24:44;;;;;;;7.97;4.88;;;11.50;1.00;;;;;;7387492;19;20418;-75
2023/04/28 04:27:14;;;;;;;7.38;5.22;;;11.50;1.00;;;;;;7367707;19;20050;-76
2023/04/28 04:29:44;;;;;;;8.00;5.32;;;11.50;1.00;;;;;;7371036;19;20036;-76
2023/04/28 04:32:14;;;;;;;6.00;4.72;;;11.50;1.00;;;;;;7374113;19;20014;-76
2023/04/28 04:34:44;;;;;;;8.50;5.20;;;11.50;1.00;;;;;;7370908;19;20558;-75
2023/04/28 04:37:14;;;;;;;6.88;5.13;;;11.50;1.00;;;;;;7373979;19;20017;-75
2023/04/28 04:39:46;;;;;;;8.07;5.70;;;11.40;1.00;;;;;;7392821;19;20025;-76
2023/04/28 04:42:16;;;;;;;8.32;5.60;;;11.40;1.00;;;;;;7372247;19;20006;-76
2023/04/28 04:44:54;;;;;;;9.10;5.95;;;11.50;1.00;;;;;;7371637;19;20025;-77
2023/04/28 04:47:24;;;;;;;7.90;5.97;;;11.50;1.00;;;;;;7372776;19;20649;-75
2023/04/28 04:49:55;;;;;;;7.22;5.45;;;11.50;1.00;;;;;;7369125;19;20023;-76
2023/04/28 04:52:25;;;;;;;7.88;5.82;;;11.50;1.00;;;;;;7372378;19;20015;-75
2023/04/28 04:54:57;;;;;;;9.15;5.32;;;11.60;1.00;;;;;;7392713;19;20022;-76
2023/04/28 04:57:27;;;;;;;7.82;5.60;;;11.60;1.00;;;;;;7372659;19;20015;-74
2023/04/28 04:59:57;;;;;;;9.15;5.38;;;11.60;1.00;;;;;;7367463;19;20026;-75
2023/04/28 05:02:27;;;;;;;7.68;5.43;;;11.60;1.00;;;;;;7372298;19;20471;-75
2023/04/28 05:04:57;;;;;;;10.68;5.55;;;11.70;1.00;;;;;;7371266;19;20038;-75
2023/04/28 05:07:41;;;;;;;8.73;5.72;;;11.70;1.00;;;;;;7372782;19;20019;-74
2023/04/28 05:10:14;;;;;;;8.75;6.05;;;11.70;1.90;;;;;;7368618;19;20018;-74
2023/04/28 05:12:43;;;;;;;8.50;5.78;;;11.60;2.60;;;;;;7394531;19;20028;-75
2023/04/28 05:15:17;;;;;;;11.07;6.93;;;11.60;4.20;;;;;;7367879;19;20415;-75
2023/04/28 05:17:47;;;;;;;9.27;7.25;;;11.70;5.90;;;;;;7371099;19;20082;-73
2023/04/28 05:20:17;;;;;;;8.40;6.45;;;11.60;7.10;;;;;;7368850;19;20014;-75
2023/04/28 05:22:47;;;;;;;9.45;6.90;;;11.60;6.00;;;;;;7372435;19;20007;-74
2023/04/28 05:25:19;;;;;;;10.73;6.40;;;11.60;6.90;;;;;;7370876;19;20351;-75
2023/04/28 05:27:49;;;;;;;7.80;5.90;;;11.70;7.80;;;;;;7393512;19;20018;-75
2023/04/28 05:30:19;;;;;;;10.75;6.30;;;11.60;7.90;;;;;;7366708;19;20006;-75
2023/04/28 05:32:49;;;;;;;8.02;6.25;;;11.70;7.60;;;;;;7372719;19;20226;-75
2023/04/28 05:35:19;;;;;;;9.18;6.32;;;11.70;6.70;;;;;;7368982;19;20003;-75
2023/04/28 05:37:49;;;;;;;10.70;6.22;;;11.80;6.90;;;;;;7369954;19;20501;-76
2023/04/28 05:40:22;;;;;;;13.25;7.15;;;11.80;6.40;;;;;;7366151;19;20035;-76
2023/04/28 05:42:52;;;;;;;10.05;7.28;;;11.90;6.70;;;;;;7393415;19;20007;-75
2023/04/28 05:45:21;;;;;;;9.27;6.93;;;11.90;5.90;;;;;;7370534;19;20011;-76
2023/04/28 05:47:52;;;;;;;9.60;7.28;;;11.90;6.20;;;;;;7371350;19;20017;-75
2023/04/28 05:50:22;;;;;;;8.48;7.00;;;11.90;8.40;;;;;;7367195;19;20036;-75
2023/04/28 05:52:51;;;;;;;10.80;7.22;;;11.90;9.10;;;;;;7371481;19;20506;-75
2023/04/28 05:55:24;;;;;;;13.70;7.18;;;12.00;9.20;;;;;;7368308;19;20463;-75
2023/04/28 05:57:55;;;;;;;11.65;6.65;;;11.90;11.10;;;;;;7392593;19;20912;-76
2023/04/28 06:00:25;;;;;;;8.77;6.53;;;11.90;12.30;;;;;;7365914;19;20010;-76
2023/04/28 06:02:55;;;;;;;10.82;7.38;;;11.90;14.40;;;;;;7369908;19;20497;-76
2023/04/28 06:05:25;;;;;;;14.70;7.90;;;12.00;15.90;;;;;;7369013;19;20555;-77
2023/04/28 06:07:56;;;;;;;13.35;7.78;;;12.00;17.50;;;;;;7369716;19;20014;-77
2023/04/28 06:10:28;;;;;;;10.40;7.47;;;11.80;19.90;;;;;;7365962;19;20084;-75
2023/04/28 06:12:58;;;;;;;12.60;8.40;;;11.70;23.60;;;;;;7390162;19;20376;-76
2023/04/28 06:15:28;;;;;;;10.35;7.93;;;11.70;25.70;;;;;;7367532;19;20031;-75
2023/04/28 06:17:59;;;;;;;15.07;9.07;;;11.70;27.30;;;;;;7367104;19;20050;-76
2023/04/28 06:20:29;;;;;;;11.40;7.65;;;11.70;29.00;;;;;;7367358;19;20524;-75
2023/04/28 06:22:59;;;;;;;10.13;6.95;;;11.80;31.10;;;;;;7369255;19;20018;-75
2023/04/28 06:25:31;;;;;;;11.18;7.18;;;11.80;31.80;;;;;;7368570;19;20359;-75
2023/04/28 06:28:01;;;;;;;31.83;10.75;;;11.80;33.50;;;;;;7391610;19;20094;-75
2023/04/28 06:30:31;;;;;;;14.35;8.95;;;11.90;35.20;;;;;;7366142;19;20015;-75
2023/04/28 06:33:01;;;;;;;16.83;9.20;;;11.90;35.70;;;;;;7368607;19;20521;-76
2023/04/28 06:35:34;;;;;;;11.73;8.93;;;11.90;36.50;;;;;;7368272;19;20010;-75
2023/04/28 06:38:05;;;;;;;12.45;9.38;;;11.90;37.60;;;;;;7369601;19;20014;-76
2023/04/28 06:40:38;;;;;;;12.57;8.80;;;11.90;38.80;;;;;;7366137;19;20011;-75
2023/04/28 06:43:08;;;;;;;13.18;9.95;;;12.00;38.90;;;;;;7369543;19;20090;-75
2023/04/28 06:45:38;;;;;;;11.98;8.98;;;12.00;39.90;;;;;;7390323;19;20014;-73
2023/04/28 06:48:09;;;;;;;13.07;8.82;;;11.90;39.40;;;;;;7367998;19;20021;-75
2023/04/28 06:50:39;;;;;;;13.25;8.63;;;12.00;40.50;;;;;;7362253;19;20471;-75
2023/04/28 06:53:12;;;;;;;14.13;9.35;;;12.00;40.10;;;;;;7369695;19;20018;-74
2023/04/28 06:55:45;;;;;;;11.93;9.15;;;12.00;41.20;;;;;;7367693;19;20015;-75
2023/04/28 06:58:15;;;;;;;12.57;9.32;;;12.10;41.40;;;;;;7369497;19;20017;-75
2023/04/28 07:00:45;;;;;;;12.25;8.63;;;12.10;41.50;;;;;;7386828;19;20518;-74
2023/04/28 07:03:15;;;;;;;12.50;9.02;;;12.10;42.10;;;;;;7367378;19;20017;-75
2023/04/28 07:05:45;;;;;;;12.88;8.63;;;12.10;43.10;;;;;;7368410;19;20035;-76
2023/04/28 07:08:16;;;;;;;13.27;9.45;;;12.10;42.90;;;;;;7368469;19;20089;-76
2023/04/28 07:10:48;;;;;;;12.00;8.73;;;12.10;43.70;;;;;;7362887;19;20074;-76
2023/04/28 07:13:18;;;;;;;13.43;8.55;;;12.20;44.60;;;;;;7369492;19;20014;-75
2023/04/28 07:15:48;;;;;;;18.08;11.45;;;12.00;43.10;;;;;;7389724;19;20094;-74
2023/04/28 07:18:18;;;;;;;12.98;8.75;;;12.00;44.80;;;;;;7366731;19;20014;-75
2023/04/28 07:20:48;;;;;;;12.98;8.68;;;11.90;45.40;;;;;;7365139;19;20014;-76
2023/04/28 07:23:18;;;;;;;14.20;9.68;;;11.90;46.10;;;;;;7368989;19;20016;-76
2023/04/28 07:25:51;;;;;;;15.43;9.60;;;12.00;47.30;;;;;;7367402;19;20383;-75
2023/04/28 07:28:21;;;;;;;13.43;9.00;;;12.10;48.80;;;;;;7367997;19;20110;-75
2023/04/28 07:30:50;;;;;;;16.20;10.45;;;11.90;48.20;;;;;;7385522;19;20015;-75
2023/04/28 07:33:20;;;;;;;13.07;9.23;;;12.00;50.30;;;;;;7367331;19;20007;-75
2023/04/28 07:35:51;;;;;;;12.75;8.88;;;12.00;51.10;;;;;;7366983;19;20419;-75
2023/04/28 07:38:21;;;;;;;14.73;9.52;;;11.90;51.10;;;;;;7366897;19;20553;-74
2023/04/28 07:40:54;;;;;;;12.00;9.32;;;12.00;51.40;;;;;;7362881;19;20010;-75
2023/04/28 07:43:24;;;;;;;14.35;10.27;;;12.00;51.60;;;;;;7367711;19;20004;-75
2023/04/28 07:45:55;;;;;;;14.70;10.05;;;11.90;52.00;;;;;;7389184;19;20494;-75
2023/04/28 07:48:26;;;;;;;18.23;9.63;;;12.00;52.30;;;;;;7366912;19;20082;-75
2023/04/28 07:50:56;;;;;;;12.90;9.88;;;11.90;51.70;;;;;;7362721;19;20014;-74
2023/04/28 07:53:25;;;;;;;10.30;8.55;;;11.80;51.60;;;;;;7366115;19;20019;-74
2023/04/28 07:55:58;;;;;;;14.68;9.45;;;11.80;52.60;;;;;;7365060;19;20014;-74
2023/04/28 07:58:29;;;;;;;17.08;9.57;;;11.80;54.10;;;;;;7366864;19;20491;-74
2023/04/28 08:00:59;;;;;;;13.98;9.57;;;11.90;54.50;;;;;;7384454;19;20502;-72
2023/04/28 08:03:29;;;;;;;14.30;9.55;;;11.90;55.00;;;;;;7364240;19;20007;-72
2023/04/28 08:06:00;;;;;;;13.25;10.43;;;12.00;55.60;;;;;;7363301;19;20399;-74
2023/04/28 08:08:32;;;;;;;16.00;10.18;;;12.00;57.50;;;;;;7364958;19;20418;-74
2023/04/28 08:11:04;;;;;;;14.50;9.93;;;11.80;56.40;;;;;;7362629;19;20038;-74
2023/04/28 08:13:34;;;;;;;15.85;9.77;;;11.80;58.00;;;;;;7366159;19;20014;-75
2023/04/28 08:16:04;;;;;;;18.80;13.30;;;11.90;59.10;;;;;;7365878;19;20018;-76
2023/04/28 08:18:35;;;;;;;14.50;10.10;;;11.90;60.60;;;;;;7387826;19;20022;-75
2023/04/28 08:21:05;;;;;;;13.40;10.57;;;12.00;62.10;;;;;;7365583;19;20015;-74
2023/04/28 08:23:37;;;;;;;19.00;10.27;;;12.00;62.10;;;;;;7366581;19;20016;-74
2023/04/28 08:26:10;;;;;;;15.25;11.25;;;12.20;63.50;;;;;;7366282;19;20017;-73
2023/04/28 08:28:40;;;;;;;14.25;11.05;;;12.20;63.60;;;;;;7365034;19;20007;-73
2023/04/28 08:31:09;;;;;;;15.73;11.23;;;12.20;63.70;;;;;;7364185;19;20482;-74
2023/04/28 08:33:43;;;;;;;18.55;11.63;;;12.30;65.70;;;;;;7387393;19;20046;-73
2023/04/28 08:36:13;;;;;;;17.07;12.00;;;12.30;66.10;;;;;;7365687;19;20066;-73
2023/04/28 08:38:44;;;;;;;13.38;10.48;;;12.40;67.10;;;;;;7365594;19;20021;-74
2023/04/28 08:41:18;;;;;;;16.67;10.98;;;12.40;67.70;;;;;;7363897;19;20500;-74
2023/04/28 08:43:48;;;;;;;16.17;11.68;;;12.50;68.20;;;;;;7365471;19;20002;-74
2023/04/28 08:46:19;;;;;;;14.02;11.13;;;12.60;68.20;;;;;;7366061;19;20007;-74
2023/04/28 08:48:51;;;;;;;13.93;10.00;;;12.50;68.10;;;;;;7386078;19;20138;-73
2023/04/28 08:51:30;;;;;;;14.07;10.02;;;12.50;68.10;;;;;;7364696;19;20366;-74
2023/04/28 08:54:03;;;;;;;10.57;8.10;;;12.60;68.60;;;;;;7363922;19;20003;-73
2023/04/28 08:56:57;;;;;;;15.95;9.75;;;12.60;68.00;;;;;;7364992;19;20022;-72
2023/04/28 08:59:27;;;;;;;13.73;9.07;;;12.60;67.80;;;;;;7362075;19;20003;-73
2023/04/28 09:01:59;;;;;;;13.20;9.85;;;12.80;68.30;;;;;;7364337;19;20022;-75
2023/04/28 09:04:29;;;;;;;12.20;9.38;;;13.00;68.50;;;;;;7363894;19;20486;-75
2023/04/28 09:06:59;;;;;;;13.85;10.18;;;13.00;68.60;;;;;;7386742;19;20471;-76
2023/04/28 09:09:31;;;;;;;13.48;9.60;;;13.00;67.90;;;;;;7361181;19;20018;-76
2023/04/28 09:12:08;;;;;;;13.07;8.90;;;13.00;66.20;;;;;;7364594;19;20030;-75
2023/04/28 09:14:40;;;;;;;11.07;8.27;;;12.90;66.40;;;;;;7366415;19;20018;-75
2023/04/28 09:17:15;;;;;;;12.10;8.27;;;12.80;67.00;;;;;;7371518;19;20032;-76
2023/04/28 09:19:45;;;;;;;10.20;7.60;;;13.00;68.50;;;;;;7369657;19;20130;-75
2023/04/28 09:22:15;;;;;;;21.13;15.15;;;13.10;68.60;;;;;;7373226;19;20014;-75
2023/04/28 09:24:56;;;;;;;7.28;5.50;;;13.10;67.30;;;;;;7394117;19;20013;-75
2023/04/28 09:27:30;;;;;;;8.25;5.90;;;13.00;62.90;;;;;;7372206;19;20007;-77
2023/04/28 09:30:01;;;;;;;7.63;5.65;;;13.20;66.60;;;;;;7367545;19;20011;-75
2023/04/28 09:32:31;;;;;;;8.95;6.30;;;13.10;65.30;;;;;;7372560;19;20018;-75
2023/04/28 09:35:03;;;;;;;8.77;5.88;;;13.20;66.70;;;;;;7370760;19;20011;-75
2023/04/28 09:37:33;;;;;;;8.30;6.03;;;13.10;65.70;;;;;;7371690;19;20022;-75
2023/04/28 09:40:09;;;;;;;8.35;6.15;;;13.20;66.40;;;;;;7377070;19;20320;-74
2023/04/28 09:42:43;;;;;;;7.78;6.38;;;13.50;68.70;;;;;;7393244;19;20370;-75
2023/04/28 09:45:14;;;;;;;;;;;13.80;69.30;;;;;;7370725;19;20026;-75
2023/04/28 09:47:47;;;;;;;9.50;5.53;;;13.80;65.00;;;;;;7370571;19;19915;-76
2023/04/28 09:50:19;;;;;;;7.43;5.30;;;13.70;65.10;;;;;;7364423;19;20014;-74
2023/04/28 09:52:58;;;;;;;6.05;4.30;;;13.90;65.10;;;;;;7371945;19;20018;-75
2023/04/28 09:55:31;;;;;;;6.78;5.15;;;13.90;65.20;;;;;;7370311;19;20462;-74
2023/04/28 09:58:06;;;;;;;5.20;4.32;;;14.10;65.30;;;;;;7390662;19;20043;-75
2023/04/28 10:00:37;;;;;;;4.88;4.38;;;14.20;59.80;;;;;;7366596;19;20010;-75
2023/04/28 10:03:09;;;;;;;6.25;4.32;;;14.60;61.70;;;;;;7371013;19;20025;-74
2023/04/28 10:05:39;;;;;;;5.38;3.65;;;14.70;61.00;;;;;;7368134;19;20026;-74
2023/04/28 10:08:10;;;;;;;7.03;4.20;;;14.80;61.00;;;;;;7369473;19;20029;-73
2023/04/28 10:10:42;;;;;;;5.82;4.07;;;15.00;58.10;;;;;;7366899;19;20023;-74
2023/04/28 10:13:15;;;;;;;7.00;4.00;;;14.80;53.40;;;;;;7371164;19;20463;-74
2023/04/28 10:15:45;;;;;;;5.60;4.00;;;14.90;53.80;;;;;;7391391;19;20697;-74
2023/04/28 10:18:18;;;;;;;4.88;3.60;;;15.00;55.60;;;;;;7367940;19;20014;-74
2023/04/28 10:20:50;;;;;;;3.95;3.15;;;15.00;56.80;;;;;;7368821;19;20037;-74
2023/04/28 10:23:48;;;;;;;5.43;3.75;;;14.60;54.30;;;;;;7369739;19;20146;-73
2023/04/28 10:26:20;;;;;;;4.00;3.33;;;14.70;55.80;;;;;;7366986;19;20081;-72
2023/04/28 10:28:54;;;;;;;4.78;3.80;;;14.70;55.40;;;;;;7369146;19;20102;-74
2023/04/28 10:31:24;;;;;;;7.20;4.32;;;15.00;57.00;;;;;;7369049;19;20004;-75
2023/04/28 10:33:54;;;;;;;4.55;3.67;;;15.20;55.00;;;;;;7389414;19;20014;-74
2023/04/28 10:36:49;;;;;;;5.00;4.30;;;15.40;54.30;;;;;;7369117;19;20030;-74
2023/04/28 10:39:20;;;;;;;4.10;3.60;;;15.50;50.60;;;;;;7366345;19;20010;-74
2023/04/28 10:41:50;;;;;;;5.38;3.47;;;15.60;52.40;;;;;;7368756;19;20018;-74
2023/04/28 10:44:46;;;;;;;4.10;3.42;;;15.60;52.10;;;;;;7368850;19;20018;-74
2023/04/28 10:47:16;;;;;;;3.00;2.38;;;15.80;51.10;;;;;;7367196;19;20446;-74
2023/04/28 10:50:10;;;;;;;3.28;2.35;;;15.60;45.80;;;;;;7366592;19;20038;-72
2023/04/28 10:52:50;;;;;;;3.65;2.05;;;15.70;48.90;;;;;;7368574;19;20007;-73
2023/04/28 10:55:35;;;;;;;2.30;1.90;;;16.00;48.00;;;;;;7365875;19;20010;-72
2023/04/28 10:58:32;;;;;;;2.03;1.83;;;16.20;46.90;;;;;;7366299;19;20123;-73
2023/04/28 11:01:30;;;;;;;3.13;1.88;;;16.10;44.60;;;;;;7387021;19;20082;-72
2023/04/28 11:04:02;;;;;;;3.08;2.10;;;16.10;45.70;;;;;;7266060;19;2004346;-71
2023/04/28 11:06:35;;;;;;;1.95;1.70;;;16.20;46.90;;;;;;7391996;19;20014;-73
2023/04/28 11:09:48;;;;;;;3.05;1.17;;;16.30;42.50;;;;;;7364815;19;20469;-74
2023/04/28 11:12:18;;;;;;;2.00;1.25;;;16.40;38.40;;;;;;7366565;19;20006;-74
2023/04/28 11:14:48;;;;;;;2.50;1.08;;;16.30;38.80;;;;;;7368153;19;20037;-73
2023/04/28 11:17:41;;;;;;;2.08;1.50;;;16.30;37.50;;;;;;7365948;19;20023;-74
2023/04/28 11:20:14;;;;;;;1.20;1.10;;;16.40;40.50;;;;;;7364930;19;20006;-73
2023/04/28 11:22:44;;;;;;;2.85;1.35;;;16.20;39.90;;;;;;7368793;19;20014;-72
2023/04/28 11:25:14;;;;;;;3.50;1.30;;;16.20;42.10;;;;;;7367687;19;20018;-74
2023/04/28 11:27:44;;;;;;;2.03;1.30;;;16.20;38.10;;;;;;7388225;19;20465;-73
2023/04/28 11:30:24;;;;;;;1.48;1.25;;;16.30;40.00;;;;;;7363784;19;20010;-73
2023/04/28 11:32:56;;;;;;;1.35;1.00;;;16.40;42.00;;;;;;7367824;19;20031;-73
2023/04/28 11:35:26;;;;;;;2.38;1.50;;;16.30;38.30;;;;;;7365378;19;20104;-73
2023/04/28 11:38:04;;;;;;;1.83;1.23;;;16.30;39.50;;;;;;7365887;19;20015;-72
2023/04/28 11:40:34;;;;;;;1.88;1.00;;;16.40;39.60;;;;;;7363490;19;20114;-74
2023/04/28 11:43:05;;;;;;;2.40;1.33;;;16.10;43.00;;;;;;7371923;19;20712;-74
2023/04/28 11:45:35;;;;;;;2.35;1.30;;;16.00;45.50;;;;;;7385270;19;20525;-75
2023/04/28 11:48:22;;;;;;;2.03;1.52;;;15.80;48.30;;;;;;7365326;19;20017;-75
2023/04/28 11:50:52;;;;;;;2.20;1.63;;;15.70;51.80;;;;;;7362387;19;20586;-74
2023/04/28 11:53:22;;;;;;;4.22;1.60;;;15.80;50.60;;;;;;7365587;19;20010;-75
2023/04/28 11:56:06;;;;;;;2.40;1.80;;;15.90;52.20;;;;;;7365173;19;20019;-74
2023/04/28 11:58:37;;;;;;;2.60;1.70;;;16.00;50.40;;;;;;7363595;19;20463;-76
2023/04/28 12:01:10;;;;;;;3.47;1.95;;;16.00;51.80;;;;;;7363982;19;20006;-75
2023/04/28 12:03:50;;;;;;;3.53;2.08;;;16.10;50.80;;;;;;7389517;19;20015;-74
2023/04/28 12:06:20;;;;;;;3.10;1.92;;;16.10;52.20;;;;;;7365579;19;20051;-75
2023/04/28 12:08:51;;;;;;;3.00;1.80;;;16.00;51.10;;;;;;7363912;19;20030;-76
2023/04/28 12:11:21;;;;;;;2.10;1.88;;;15.90;53.00;;;;;;7363875;19;20010;-76
2023/04/28 12:14:09;;;;;;;3.40;1.67;;;16.00;53.40;;;;;;7365596;19;20019;-76
2023/04/28 12:16:45;;;;;;;2.85;1.90;;;16.00;54.00;;;;;;7366655;19;20015;-75
2023/04/28 12:19:19;;;;;;;3.25;1.73;;;16.20;53.50;;;;;;7362744;19;20010;-75
2023/04/28 12:22:03;;;;;;;3.00;1.80;;;16.10;53.50;;;;;;7387526;19;20390;-76
2023/04/28 12:24:34;;;;;;;2.03;1.23;;;16.00;53.20;;;;;;7364290;19;20007;-75
2023/04/28 12:27:23;;;;;;;1.30;1.00;;;15.60;46.00;;;;;;7364249;19;20003;-75
2023/04/28 12:29:55;;;;;;;1.65;0.90;;;15.60;45.20;;;;;;7360139;19;20098;-76
2023/04/28 12:32:40;;;;;;;3.03;1.05;;;15.30;41.70;;;;;;7362445;19;20391;-76
2023/04/28 12:35:13;;;;;;;4.15;1.00;;;14.90;43.30;;;;;;7362684;19;20040;-76
2023/04/28 12:37:46;;;;;;;1.48;0.80;;;14.40;48.10;;;;;;7364890;19;20046;-77
2023/04/28 12:40:16;;;;;;;3.65;0.60;;;14.20;52.60;;;;;;7360477;19;20019;-76
2023/04/28 12:42:46;;;;;;;3.95;1.00;;;14.00;54.10;;;;;;7388639;19;20014;-77
2023/04/28 12:45:15;;;;;;;3.13;1.05;;;13.90;58.00;;;;;;7364730;19;20006;-77
2023/04/28 12:47:46;;;;;;;2.33;1.05;;;13.70;58.20;;;;;;7364518;19;20030;-78
2023/04/28 12:50:18;;;;;;;3.15;1.00;;;13.70;62.10;;;;;;7368281;19;20035;-76
2023/04/28 12:52:48;;;;;;;3.47;1.15;;;13.70;64.80;;;;;;7370795;19;20015;-76
2023/04/28 12:55:18;;;;;;;1.05;0.70;;;13.90;65.40;;;;;;7368100;19;20018;-76
2023/04/28 12:57:48;;;;;;;1.30;0.98;;;14.00;66.90;;;;;;7394602;19;20021;-74
2023/04/28 13:00:22;;;;;;;3.53;0.93;;;14.30;67.40;;;;;;7363233;19;20011;-75
2023/04/28 13:02:52;;;;;;;1.23;0.97;;;14.40;66.30;;;;;;7368562;19;20046;-77
2023/04/28 13:05:25;;;;;;;2.33;1.55;;;14.60;66.50;;;;;;7371850;19;20002;-74
2023/04/28 13:07:55;;;;;;;2.08;1.00;;;14.40;64.20;;;;;;7367736;19;20139;-75
2023/04/28 13:10:25;;;;;;;2.58;1.02;;;14.40;58.80;;;;;;7364693;19;20485;-73
2023/04/28 13:12:55;;;;;;;2.78;1.70;;;14.60;57.50;;;;;;7391710;19;20101;-73